createdAt,value
2023-01-30T00:00:54.940Z,70.58
2023-01-30T00:03:22.323Z,70.35
2023-01-30T00:05:48.937Z,70.23
2023-01-30T00:08:16.040Z,70.97
2023-01-30T00:10:42.784Z,70.23
2023-01-30T00:13:09.741Z,71.08
2023-01-30T00:15:36.535Z,71.82
2023-01-30T00:18:03.452Z,71.40
2023-01-30T00:20:30.304Z,71.68
2023-01-30T00:23:00.992Z,71.42
2023-01-30T00:25:28.555Z,71.09
2023-01-30T00:27:55.208Z,70.79
2023-01-30T00:30:21.667Z,71.37
2023-01-30T00:32:48.220Z,70.72
2023-01-30T00:35:14.653Z,71.71
2023-01-30T00:37:40.988Z,70.99
2023-01-30T00:40:07.818Z,71.18
2023-01-30T00:42:52.956Z,70.84
2023-01-30T00:45:38.213Z,71.10
2023-01-30T00:48:04.753Z,71.36
2023-01-30T00:50:42.376Z,72.27
2023-01-30T00:53:13.685Z,72.46
2023-01-30T00:55:40.791Z,72.15
2023-01-30T00:58:07.410Z,71.71
2023-01-30T01:00:33.867Z,71.80
2023-01-30T01:03:00.666Z,71.88
2023-01-30T01:05:27.921Z,71.43
2023-01-30T01:07:55.038Z,71.50
2023-01-30T01:10:21.895Z,71.61
2023-01-30T01:12:50.420Z,71.67
2023-01-30T01:15:17.103Z,71.27
2023-01-30T01:17:43.996Z,72.47
2023-01-30T01:20:10.827Z,72.69
2023-01-30T01:22:37.219Z,73.09
2023-01-30T01:25:04.425Z,72.95
2023-01-30T01:27:30.974Z,72.88
2023-01-30T01:29:57.299Z,72.66
2023-01-30T01:32:23.799Z,72.40
2023-01-30T01:34:50.132Z,72.42
2023-01-30T01:37:16.475Z,72.92
2023-01-30T01:40:01.654Z,72.65
2023-01-30T01:42:31.906Z,71.94
2023-01-30T01:45:13.455Z,73.01
2023-01-30T01:47:49.495Z,72.99
2023-01-30T01:50:21.083Z,73.24
2023-01-30T01:52:52.469Z,73.47
2023-01-30T01:55:21.237Z,73.44
2023-01-30T01:57:53.588Z,73.70
2023-01-30T02:00:21.445Z,74.28
2023-01-30T02:03:01.344Z,74.54
2023-01-30T02:05:33.973Z,73.85
2023-01-30T02:08:06.156Z,73.91
2023-01-30T02:10:54.436Z,74.16
2023-01-30T02:13:21.051Z,73.72
2023-01-30T02:15:47.538Z,73.76
2023-01-30T02:18:15.208Z,73.86
2023-01-30T02:21:27.382Z,73.79
2023-01-30T02:24:32.203Z,73.53
2023-01-30T02:27:07.746Z,73.65
2023-01-30T02:29:53.050Z,74.19
2023-01-30T02:32:38.313Z,74.71
2023-01-30T02:35:17.727Z,74.42
2023-01-30T02:37:44.183Z,74.42
2023-01-30T02:40:25.860Z,74.01
2023-01-30T02:43:18.752Z,74.34
2023-01-30T02:45:54.515Z,74.22
2023-01-30T02:48:30.845Z,73.87
2023-01-30T02:51:01.128Z,73.92
2023-01-30T02:53:32.846Z,73.93
2023-01-30T02:55:59.461Z,73.45
2023-01-30T02:58:31.155Z,74.10
2023-01-30T03:01:26.917Z,74.60
2023-01-30T03:04:11.242Z,73.68
2023-01-30T03:07:32.773Z,74.39
2023-01-30T03:10:37.751Z,74.88
2023-01-30T03:13:19.455Z,74.84
2023-01-30T03:16:02.876Z,73.85
2023-01-30T03:18:29.638Z,74.25
2023-01-30T03:20:56.868Z,73.51
2023-01-30T03:23:23.212Z,73.03
2023-01-30T03:25:49.913Z,72.02
2023-01-30T03:28:19.450Z,71.98
2023-01-30T03:30:45.831Z,71.37
2023-01-30T03:33:12.203Z,71.39
2023-01-30T03:35:39.044Z,73.37
2023-01-30T03:38:05.419Z,74.26
2023-01-30T03:40:32.119Z,74.29
2023-01-30T03:42:58.653Z,74.18
2023-01-30T03:45:25.016Z,73.56
2023-01-30T03:47:51.879Z,74.32
2023-01-30T03:50:18.212Z,74.40
2023-01-30T03:52:44.525Z,75.72
2023-01-30T03:55:11.257Z,76.14
2023-01-30T03:57:37.823Z,75.19
2023-01-30T04:00:04.763Z,74.99
2023-01-30T04:02:31.149Z,75.13
2023-01-30T04:04:57.491Z,75.26
2023-01-30T04:07:24.135Z,75.81
2023-01-30T04:09:50.509Z,76.15
2023-01-30T04:12:16.847Z,75.78
2023-01-30T04:14:43.169Z,75.83
2023-01-30T04:17:09.479Z,75.54
2023-01-30T04:19:35.801Z,75.70
2023-01-30T04:22:02.137Z,75.71
2023-01-30T04:24:28.500Z,74.79
2023-01-30T04:26:54.881Z,75.40
2023-01-30T04:29:21.192Z,74.99
2023-01-30T04:31:47.498Z,74.80
2023-01-30T04:34:14.001Z,75.07
2023-01-30T04:36:40.347Z,75.34
2023-01-30T04:39:06.701Z,74.32
2023-01-30T04:41:33.032Z,74.68
2023-01-30T04:43:59.343Z,75.75
2023-01-30T04:46:25.695Z,76.14
2023-01-30T04:48:52.158Z,75.70
2023-01-30T04:51:18.476Z,76.02
2023-01-30T04:53:44.865Z,76.43
2023-01-30T04:56:11.424Z,76.11
2023-01-30T04:58:37.767Z,76.54
2023-01-30T05:01:22.809Z,76.31
2023-01-30T05:03:51.046Z,75.92
2023-01-30T05:06:17.408Z,76.30
2023-01-30T05:08:46.590Z,76.54
2023-01-30T05:11:13.163Z,76.02
2023-01-30T05:13:39.495Z,76.00
2023-01-30T05:16:06.327Z,75.49
2023-01-30T05:18:33.925Z,75.21
2023-01-30T05:21:08.505Z,74.83
2023-01-30T05:23:35.370Z,74.58
2023-01-30T05:26:02.275Z,74.38
2023-01-30T05:28:29.303Z,73.87
2023-01-30T05:31:02.182Z,73.80
2023-01-30T05:33:28.936Z,73.39
2023-01-30T05:35:55.294Z,73.78
2023-01-30T05:38:23.005Z,73.66
2023-01-30T05:40:59.338Z,74.06
2023-01-30T05:43:25.954Z,74.12
2023-01-30T05:45:56.355Z,73.95
2023-01-30T05:48:23.767Z,74.34
2023-01-30T05:50:51.860Z,74.44
2023-01-30T05:53:22.021Z,74.51
2023-01-30T05:56:15.243Z,74.08
2023-01-30T05:58:41.957Z,73.88
2023-01-30T06:01:11.764Z,73.16
2023-01-30T06:03:38.955Z,74.23
2023-01-30T06:06:06.115Z,74.44
2023-01-30T06:08:33.191Z,74.99
2023-01-30T06:11:13.865Z,75.24
2023-01-30T06:13:40.328Z,75.73
2023-01-30T06:16:08.293Z,75.50
2023-01-30T06:18:35.789Z,76.63
2023-01-30T06:21:02.175Z,76.27
2023-01-30T06:23:28.591Z,76.63
2023-01-30T06:25:55.631Z,77.53
2023-01-30T06:28:23.092Z,77.49
2023-01-30T06:30:49.881Z,76.80
2023-01-30T06:33:16.561Z,77.40
2023-01-30T06:35:44.077Z,77.22
2023-01-30T06:38:11.621Z,77.29
2023-01-30T06:40:38.499Z,77.03
2023-01-30T06:43:05.076Z,76.48
2023-01-30T06:45:31.517Z,75.82
2023-01-30T06:47:57.966Z,76.35
2023-01-30T06:50:26.658Z,77.02
2023-01-30T06:52:54.131Z,75.91
2023-01-30T06:55:22.771Z,76.18
2023-01-30T06:57:49.788Z,74.60
2023-01-30T07:00:18.913Z,75.02
2023-01-30T07:02:46.534Z,75.65
2023-01-30T07:05:12.915Z,75.13
2023-01-30T07:07:39.554Z,74.74
2023-01-30T07:10:09.207Z,74.45
2023-01-30T07:12:36.221Z,74.72
2023-01-30T07:15:03.844Z,74.50
2023-01-30T07:17:30.364Z,75.22
2023-01-30T07:19:56.897Z,74.59
2023-01-30T07:22:23.391Z,74.59
2023-01-30T07:24:49.785Z,75.41
2023-01-30T07:27:16.928Z,75.08
2023-01-30T07:29:43.359Z,75.25
2023-01-30T07:32:15.610Z,75.01
2023-01-30T07:34:42.149Z,75.31
2023-01-30T07:37:08.564Z,75.87
2023-01-30T07:39:35.313Z,75.91
2023-01-30T07:42:02.531Z,75.54
2023-01-30T07:44:28.881Z,75.46
2023-01-30T07:46:55.290Z,76.12
2023-01-30T07:49:21.644Z,75.43
2023-01-30T07:51:48.059Z,75.18
2023-01-30T07:54:14.456Z,75.52
2023-01-30T07:56:40.809Z,76.09
2023-01-30T07:59:07.204Z,76.12
2023-01-30T08:01:33.527Z,76.58
2023-01-30T08:03:59.848Z,76.04
2023-01-30T08:06:26.239Z,75.57
2023-01-30T08:08:52.582Z,75.45
2023-01-30T08:11:18.913Z,75.50
2023-01-30T08:13:45.331Z,75.14
2023-01-30T08:16:11.741Z,74.89
2023-01-30T08:18:38.260Z,74.50
2023-01-30T08:21:07.143Z,72.77
2023-01-30T08:23:34.549Z,73.22
2023-01-30T08:26:03.190Z,72.57
2023-01-30T08:28:30.868Z,71.76
2023-01-30T08:30:57.661Z,71.82
2023-01-30T08:33:24.964Z,71.22
2023-01-30T08:35:51.613Z,71.98
2023-01-30T08:38:17.968Z,71.96
2023-01-30T08:40:44.364Z,72.32
2023-01-30T08:43:10.722Z,72.81
2023-01-30T08:45:37.120Z,72.42
2023-01-30T08:48:05.741Z,72.41
2023-01-30T08:50:33.309Z,72.98
2023-01-30T08:53:07.632Z,73.62
2023-01-30T08:55:34.027Z,73.47
2023-01-30T08:58:00.404Z,73.32
2023-01-30T09:00:28.129Z,73.21
2023-01-30T09:02:56.056Z,72.85
2023-01-30T09:05:22.508Z,72.98
2023-01-30T09:07:50.295Z,73.26
2023-01-30T09:10:17.716Z,72.46
2023-01-30T09:12:44.588Z,71.72
2023-01-30T09:15:11.388Z,70.91
2023-01-30T09:17:38.450Z,70.66
2023-01-30T09:20:09.711Z,71.22
2023-01-30T09:22:36.772Z,71.27
2023-01-30T09:25:03.608Z,71.17
2023-01-30T09:27:29.941Z,71.32
2023-01-30T09:29:56.344Z,70.91
2023-01-30T09:32:23.556Z,70.88
2023-01-30T09:34:49.915Z,70.62
2023-01-30T09:37:16.263Z,69.66
2023-01-30T09:39:42.599Z,69.96
2023-01-30T09:42:32.794Z,68.97
2023-01-30T09:45:25.239Z,68.36
2023-01-30T09:48:33.780Z,68.38
2023-01-30T09:51:26.865Z,68.60
2023-01-30T09:54:08.435Z,68.02
2023-01-30T09:56:34.972Z,67.64
2023-01-30T09:59:03.448Z,65.94
2023-01-30T10:01:40.675Z,65.51
2023-01-30T10:04:29.482Z,65.92
2023-01-30T10:06:59.688Z,65.75
2023-01-30T10:09:38.443Z,66.37
2023-01-30T10:12:29.783Z,66.08
2023-01-30T10:15:28.893Z,66.78
2023-01-30T10:18:07.913Z,66.67
2023-01-30T10:20:39.526Z,66.41
2023-01-30T10:23:18.926Z,67.58
2023-01-30T10:25:49.395Z,67.27
2023-01-30T10:28:21.469Z,67.67
2023-01-30T10:30:49.350Z,67.38
2023-01-30T10:33:22.593Z,67.12
2023-01-30T10:36:10.476Z,67.93
2023-01-30T10:38:46.332Z,68.78
2023-01-30T10:41:34.732Z,69.08
2023-01-30T10:44:13.453Z,69.27
2023-01-30T10:47:12.382Z,69.53
2023-01-30T10:49:52.583Z,69.46
2023-01-30T10:52:32.732Z,69.98
2023-01-30T10:55:31.484Z,69.53
2023-01-30T10:58:23.679Z,69.55
2023-01-30T11:01:01.170Z,69.51
2023-01-30T11:03:49.242Z,68.85
2023-01-30T11:06:19.415Z,68.60
2023-01-30T11:08:46.101Z,68.52
2023-01-30T11:11:27.074Z,68.23
2023-01-30T11:14:08.150Z,67.33
2023-01-30T11:16:43.498Z,67.74
2023-01-30T11:19:20.852Z,67.59
2023-01-30T11:21:54.423Z,67.51
2023-01-30T11:24:29.196Z,67.31
2023-01-30T11:27:08.925Z,66.98
2023-01-30T11:29:39.220Z,66.65
2023-01-30T11:32:13.013Z,66.44
2023-01-30T11:34:43.033Z,66.63
2023-01-30T11:37:27.428Z,66.46
2023-01-30T11:39:54.313Z,66.43
2023-01-30T11:42:29.483Z,65.81
2023-01-30T11:45:15.538Z,65.81
2023-01-30T11:48:05.001Z,65.04
2023-01-30T11:50:44.546Z,64.38
2023-01-30T11:53:23.792Z,64.70
2023-01-30T11:56:02.869Z,64.43
2023-01-30T11:58:33.944Z,64.23
2023-01-30T12:01:02.049Z,63.01
2023-01-30T12:03:29.956Z,62.93
2023-01-30T12:05:58.698Z,62.71
2023-01-30T12:08:41.054Z,62.73
2023-01-30T12:11:28.864Z,63.53
2023-01-30T12:14:04.997Z,63.10
2023-01-30T12:16:44.319Z,62.90
2023-01-30T12:19:33.903Z,62.23
2023-01-30T12:22:18.756Z,62.28
2023-01-30T12:25:01.384Z,62.21
2023-01-30T12:27:55.241Z,62.16
2023-01-30T12:33:06.801Z,62.52
2023-01-30T12:36:01.276Z,62.48
2023-01-30T12:38:58.167Z,62.30
2023-01-30T12:41:55.525Z,62.54
2023-01-30T12:44:42.783Z,62.25
2023-01-30T12:47:41.691Z,62.20
2023-01-30T12:50:21.111Z,62.53
2023-01-30T12:52:59.249Z,62.63
2023-01-30T12:55:51.359Z,62.48
2023-01-30T12:58:46.650Z,62.41
2023-01-30T13:01:40.307Z,63.23
2023-01-30T13:04:24.988Z,62.79
2023-01-30T13:07:22.403Z,63.22
2023-01-30T13:09:58.599Z,62.92
2023-01-30T13:12:42.034Z,63.78
2023-01-30T13:15:31.960Z,64.08
2023-01-30T13:18:15.272Z,63.46
2023-01-30T13:20:52.542Z,63.91
2023-01-30T13:23:36.400Z,63.34
2023-01-30T13:26:10.199Z,63.12
2023-01-30T13:28:48.585Z,63.21
2023-01-30T13:31:21.238Z,62.80
2023-01-30T13:33:50.720Z,63.48
2023-01-30T13:36:22.747Z,62.88
2023-01-30T13:39:03.943Z,63.56
2023-01-30T13:41:35.638Z,63.39
2023-01-30T13:44:13.420Z,64.00
2023-01-30T13:46:40.335Z,64.30
2023-01-30T13:49:15.771Z,64.79
2023-01-30T13:51:47.253Z,64.80
2023-01-30T13:54:23.904Z,64.75
2023-01-30T13:57:23.737Z,65.22
2023-01-30T14:00:18.217Z,64.12
2023-01-30T14:03:03.162Z,64.53
2023-01-30T14:05:51.555Z,64.54
2023-01-30T14:08:22.860Z,64.75
2023-01-30T14:10:50.129Z,64.63
2023-01-30T14:13:17.631Z,65.00
2023-01-30T14:15:58.962Z,65.58
2023-01-30T14:18:33.733Z,65.36
2023-01-30T14:21:13.813Z,65.48
2023-01-30T14:23:53.532Z,65.83
2023-01-30T14:26:48.559Z,65.79
2023-01-30T14:29:42.909Z,65.81
2023-01-30T14:32:13.977Z,64.99
2023-01-30T14:35:09.895Z,65.51
2023-01-30T14:37:39.078Z,65.99
2023-01-30T14:40:20.751Z,65.70
2023-01-30T14:43:12.258Z,65.58
2023-01-30T14:45:47.969Z,65.84
2023-01-30T14:48:32.075Z,65.85
2023-01-30T14:51:36.891Z,65.84
2023-01-30T14:54:10.027Z,66.01
2023-01-30T14:56:54.611Z,65.15
2023-01-30T14:59:26.335Z,65.00
2023-01-30T15:02:11.985Z,65.13
2023-01-30T15:04:56.016Z,66.01
2023-01-30T15:07:27.401Z,66.08
2023-01-30T15:10:32.589Z,66.70
2023-01-30T15:13:21.491Z,66.66
2023-01-30T15:16:19.863Z,66.63
2023-01-30T15:19:14.517Z,66.78
2023-01-30T15:22:02.948Z,67.58
2023-01-30T15:24:47.985Z,67.70
2023-01-30T15:27:31.484Z,67.10
2023-01-30T15:30:20.929Z,67.91
2023-01-30T15:32:47.550Z,68.62
2023-01-30T15:35:17.105Z,68.21
2023-01-30T15:37:46.405Z,68.66
2023-01-30T15:40:16.036Z,67.70
2023-01-30T15:43:00.664Z,68.12
2023-01-30T15:46:11.262Z,68.65
2023-01-30T15:49:16.553Z,69.56
2023-01-30T15:51:43.088Z,68.95
2023-01-30T15:54:14.568Z,68.92
2023-01-30T15:56:41.116Z,69.28
2023-01-30T15:59:08.404Z,69.25
2023-01-30T16:01:34.788Z,69.09
2023-01-30T16:04:04.856Z,69.40
2023-01-30T16:06:34.544Z,70.18
2023-01-30T16:09:19.739Z,69.94
2023-01-30T16:11:46.251Z,70.95
2023-01-30T16:14:15.053Z,70.98
2023-01-30T16:16:47.090Z,71.30
2023-01-30T16:19:21.223Z,72.97
2023-01-30T16:21:48.203Z,73.58
2023-01-30T16:24:24.663Z,73.91
2023-01-30T16:27:00.745Z,75.13
2023-01-30T16:29:30.006Z,75.51
2023-01-30T16:31:57.252Z,76.51
2023-01-30T16:34:38.311Z,77.03
2023-01-30T16:37:07.563Z,77.99
2023-01-30T16:39:36.281Z,79.23
2023-01-30T16:42:19.919Z,79.32
2023-01-30T16:44:46.285Z,79.93
2023-01-30T16:47:25.092Z,80.14
2023-01-30T16:49:53.284Z,80.27
2023-01-30T16:52:26.107Z,80.33
2023-01-30T16:54:55.934Z,80.59
2023-01-30T16:57:36.312Z,81.65
2023-01-30T17:00:21.268Z,82.59
2023-01-30T17:02:53.335Z,83.51
2023-01-30T17:05:22.779Z,83.42
2023-01-30T17:07:50.463Z,82.26
2023-01-30T17:10:41.656Z,83.25
2023-01-30T17:13:30.457Z,83.72
2023-01-30T17:16:25.957Z,83.13
2023-01-30T17:18:55.205Z,83.66
2023-01-30T17:21:23.656Z,83.51
2023-01-30T17:23:55.148Z,83.33
2023-01-30T17:26:21.604Z,83.83
2023-01-30T17:28:48.000Z,83.96
2023-01-30T17:31:15.711Z,83.74
2023-01-30T17:33:42.659Z,83.77
2023-01-30T17:36:25.866Z,83.63
2023-01-30T17:38:52.429Z,83.83
2023-01-30T17:41:21.281Z,83.85
2023-01-30T17:43:49.736Z,83.94
2023-01-30T17:46:17.216Z,83.82
2023-01-30T17:48:44.397Z,83.49
2023-01-30T17:51:13.983Z,83.56
2023-01-30T17:53:41.688Z,83.40
2023-01-30T17:56:17.319Z,83.89
2023-01-30T17:58:43.647Z,84.22
2023-01-30T18:01:11.915Z,84.43
2023-01-30T18:03:38.238Z,83.91
2023-01-30T18:06:04.727Z,82.97
2023-01-30T18:08:31.056Z,82.95
2023-01-30T18:10:57.463Z,84.00
2023-01-30T18:13:23.801Z,83.68
2023-01-30T18:15:52.357Z,83.76
2023-01-30T18:18:19.008Z,83.43
2023-01-30T18:20:46.849Z,83.35
2023-01-30T18:23:13.811Z,83.22
2023-01-30T18:25:40.145Z,83.41
2023-01-30T18:28:09.917Z,83.15
2023-01-30T18:30:36.335Z,82.89
2023-01-30T18:33:02.681Z,82.37
2023-01-30T18:35:29.096Z,83.08
2023-01-30T18:37:59.387Z,83.43
2023-01-30T18:40:28.671Z,83.68
2023-01-30T18:42:54.990Z,83.51
2023-01-30T18:45:21.336Z,84.11
2023-01-30T18:47:47.836Z,82.99
2023-01-30T18:50:14.219Z,84.33
2023-01-30T18:52:40.548Z,84.51
2023-01-30T18:55:07.181Z,84.18
2023-01-30T18:57:33.515Z,84.18
2023-01-30T18:59:59.848Z,84.53
2023-01-30T19:02:26.203Z,84.55
2023-01-30T19:04:52.582Z,84.96
2023-01-30T19:07:18.998Z,85.01
2023-01-30T19:09:45.402Z,84.34
2023-01-30T19:12:30.604Z,83.81
2023-01-30T19:14:56.943Z,84.17
2023-01-30T19:17:23.319Z,85.09
2023-01-30T19:19:49.860Z,84.93
2023-01-30T19:22:17.970Z,85.02
2023-01-30T19:24:44.560Z,85.03
2023-01-30T19:27:13.692Z,85.09
2023-01-30T19:29:41.393Z,85.17
2023-01-30T19:32:07.719Z,84.42
2023-01-30T19:34:34.079Z,83.86
2023-01-30T19:37:01.102Z,83.69
2023-01-30T19:39:27.438Z,83.72
2023-01-30T19:41:53.780Z,84.31
2023-01-30T19:44:20.162Z,84.09
2023-01-30T19:46:46.643Z,83.44
2023-01-30T19:49:13.036Z,83.13
2023-01-30T19:51:40.517Z,83.67
2023-01-30T19:54:09.439Z,82.97
2023-01-30T19:56:37.484Z,82.23
2023-01-30T19:59:04.490Z,80.93
2023-01-30T20:01:35.257Z,81.37
2023-01-30T20:04:02.389Z,81.19
2023-01-30T20:06:31.700Z,81.75
2023-01-30T20:09:00.891Z,81.73
2023-01-30T20:11:27.795Z,83.71
2023-01-30T20:13:54.763Z,84.48
2023-01-30T20:16:25.274Z,83.61
2023-01-30T20:18:59.739Z,83.60
2023-01-30T20:21:27.225Z,82.24
2023-01-30T20:23:54.848Z,82.18
2023-01-30T20:26:24.421Z,81.98
2023-01-30T20:28:51.207Z,81.86
2023-01-30T20:31:20.567Z,83.18
2023-01-30T20:33:47.484Z,83.19
2023-01-30T20:36:17.568Z,83.55
2023-01-30T20:38:45.366Z,82.69
2023-01-30T20:41:14.809Z,82.79
2023-01-30T20:43:46.569Z,81.80
2023-01-30T20:46:18.589Z,80.47
2023-01-30T20:48:45.517Z,82.47
2023-01-30T20:51:18.037Z,83.36
2023-01-30T20:53:50.135Z,83.64
2023-01-30T20:56:16.757Z,83.07
2023-01-30T20:58:43.271Z,83.20
2023-01-30T21:01:12.386Z,83.57
2023-01-30T21:03:39.563Z,83.25
2023-01-30T21:06:06.005Z,82.88
2023-01-30T21:08:32.551Z,84.11
2023-01-30T21:11:14.641Z,84.13
2023-01-30T21:13:41.687Z,84.68
2023-01-30T21:16:20.941Z,84.72
2023-01-30T21:18:49.908Z,85.06
2023-01-30T21:21:19.936Z,83.85
2023-01-30T21:23:47.505Z,83.30
2023-01-30T21:26:15.698Z,82.46
2023-01-30T21:28:42.898Z,81.71
2023-01-30T21:31:12.903Z,81.10
2023-01-30T21:33:40.211Z,80.53
2023-01-30T21:36:07.335Z,79.24
2023-01-30T21:38:52.916Z,81.91
2023-01-30T21:41:40.322Z,82.83
2023-01-30T21:44:06.914Z,83.30
2023-01-30T21:46:51.755Z,83.09
2023-01-30T21:49:19.082Z,82.73
2023-01-30T21:51:47.434Z,82.93
2023-01-30T21:54:15.429Z,82.25
2023-01-30T21:56:42.288Z,81.07
2023-01-30T21:59:08.671Z,81.18
2023-01-30T22:01:36.669Z,80.28
2023-01-30T22:04:05.499Z,80.43
2023-01-30T22:06:32.807Z,82.08
2023-01-30T22:09:01.201Z,82.54
2023-01-30T22:11:28.692Z,83.74
2023-01-30T22:13:55.840Z,84.00
2023-01-30T22:16:27.402Z,83.94
2023-01-30T22:18:56.522Z,83.58
2023-01-30T22:21:24.991Z,84.12
2023-01-30T22:23:52.939Z,84.32
2023-01-30T22:26:21.584Z,84.92
2023-01-30T22:28:48.045Z,84.93
2023-01-30T22:31:17.580Z,84.58
2023-01-30T22:33:45.916Z,85.15
2023-01-30T22:36:13.073Z,85.48
2023-01-30T22:38:47.599Z,85.18
2023-01-30T22:41:18.256Z,84.32
2023-01-30T22:43:58.489Z,83.65
2023-01-30T22:46:33.482Z,83.24
2023-01-30T22:49:01.683Z,82.93
2023-01-30T22:51:30.469Z,82.20
2023-01-30T22:54:02.176Z,82.28
2023-01-30T22:56:31.485Z,83.01
2023-01-30T22:58:57.826Z,81.54
2023-01-30T23:01:26.595Z,80.54
2023-01-30T23:03:57.319Z,81.48
2023-01-30T23:06:24.444Z,81.91
2023-01-30T23:08:52.515Z,81.67
2023-01-30T23:11:40.563Z,81.60
2023-01-30T23:14:13.367Z,83.33
2023-01-30T23:16:43.349Z,82.73
2023-01-30T23:19:11.647Z,81.00
2023-01-30T23:21:43.503Z,80.10
2023-01-30T23:24:15.764Z,81.33
2023-01-30T23:26:46.399Z,81.10
2023-01-30T23:29:15.041Z,82.17
2023-01-30T23:31:42.824Z,81.65
2023-01-30T23:34:18.280Z,81.65
2023-01-30T23:36:45.782Z,81.15
2023-01-30T23:39:13.405Z,81.69
2023-01-30T23:41:41.777Z,81.96
2023-01-30T23:44:08.247Z,82.03
2023-01-30T23:46:37.688Z,81.39
2023-01-30T23:49:09.536Z,80.71
2023-01-30T23:51:38.697Z,79.45
2023-01-30T23:54:05.747Z,78.59
2023-01-30T23:56:36.201Z,79.32
2023-01-30T23:59:03.359Z,79.57
